Time;durP1;ratioP1;P1;durP2;ratioP2;P2;SDS_P1;SDS_P2;PMS_P1;PMS_P2;Temp;Humidity;BMP_temperature;BMP_pressure;BME280_temperature;BME280_humidity;BME280_pressure;Samples;Min_cycle;Max_cycle;Signal;HPM_P1;HPM_P2
2022/01/16 00:01:58;;;;;;;3.80;1.75;;;0.50;99.90;;;;;;5080092;28;20795;-64
2022/01/16 00:04:24;;;;;;;7.55;1.10;;;0.50;99.90;;;;;;5085243;28;20035;-64
2022/01/16 00:06:50;;;;;;;3.35;0.90;;;0.60;99.90;;;;;;5085743;28;20047;-64
2022/01/16 00:09:16;;;;;;;2.58;0.82;;;0.60;99.90;;;;;;5083374;28;20185;-64
2022/01/16 00:11:43;;;;;;;2.17;0.80;;;0.60;99.90;;;;;;5085338;28;20119;-65
2022/01/16 00:14:10;;;;;;;2.03;1.10;;;0.60;99.90;;;;;;5084753;28;20036;-65
2022/01/16 00:16:36;;;;;;;3.58;1.70;;;0.60;99.90;;;;;;5080127;28;20185;-64
2022/01/16 00:19:02;;;;;;;3.03;1.40;;;0.60;99.90;;;;;;5071368;28;20112;-64
2022/01/16 00:21:31;;;;;;;2.45;1.30;;;0.60;99.90;;;;;;5064134;28;20512;-64
2022/01/16 00:23:58;;;;;;;7.45;1.23;;;0.50;99.90;;;;;;5064487;28;20036;-64
2022/01/16 00:26:24;;;;;;;2.55;1.00;;;0.50;99.90;;;;;;5075506;28;20036;-63
2022/01/16 00:28:51;;;;;;;3.95;1.10;;;0.50;99.90;;;;;;5059488;28;20040;-64
2022/01/16 00:31:18;;;;;;;3.55;0.85;;;0.50;99.90;;;;;;5059668;28;20045;-64
2022/01/16 00:33:44;;;;;;;3.08;0.80;;;0.50;99.90;;;;;;5062719;28;20044;-64
2022/01/16 00:36:12;;;;;;;4.03;1.00;;;0.50;99.90;;;;;;5068749;28;20803;-64
2022/01/16 00:38:40;;;;;;;4.43;1.60;;;0.40;99.90;;;;;;5067531;28;20051;-64
2022/01/16 00:41:06;;;;;;;2.47;1.10;;;0.50;99.90;;;;;;5063018;28;20033;-63
2022/01/16 00:43:31;;;;;;;3.70;0.88;;;0.50;99.90;;;;;;5061137;28;20050;-65
2022/01/16 00:45:57;;;;;;;5.70;1.45;;;0.50;99.90;;;;;;5064367;28;20070;-64
2022/01/16 00:48:23;;;;;;;5.53;1.40;;;0.50;99.90;;;;;;5059260;28;20036;-64
2022/01/16 00:50:49;;;;;;;3.45;1.05;;;0.50;99.90;;;;;;5064448;28;20127;-64
2022/01/16 00:53:14;;;;;;;6.30;1.45;;;0.50;99.90;;;;;;5065810;28;20029;-64
2022/01/16 00:55:41;;;;;;;2.70;1.42;;;0.40;99.90;;;;;;5066612;28;20036;-64
2022/01/16 00:58:07;;;;;;;2.70;1.00;;;0.40;99.90;;;;;;5063617;28;20040;-64
2022/01/16 01:00:33;;;;;;;2.53;1.10;;;0.40;99.90;;;;;;5062085;28;20047;-64
2022/01/16 01:02:59;;;;;;;1.55;1.00;;;0.30;99.90;;;;;;5062386;28;20039;-64
2022/01/16 01:05:25;;;;;;;2.00;1.00;;;0.30;99.90;;;;;;5066310;28;20039;-64
2022/01/16 01:07:51;;;;;;;2.53;0.90;;;0.30;99.90;;;;;;5069447;28;20451;-64
2022/01/16 01:10:18;;;;;;;2.58;1.10;;;0.30;99.90;;;;;;5064776;28;20036;-63
2022/01/16 01:12:53;;;;;;;6.93;1.40;;;0.30;99.90;;;;;;5061145;28;20056;-64
2022/01/16 01:15:26;;;;;;;4.82;1.40;;;0.30;99.90;;;;;;5063048;28;20480;-64
2022/01/16 01:17:53;;;;;;;4.07;1.23;;;0.20;99.90;;;;;;5060657;28;20047;-64
2022/01/16 01:20:21;;;;;;;3.47;0.90;;;0.20;99.90;;;;;;5064677;28;20114;-64
2022/01/16 01:22:49;;;;;;;2.90;1.17;;;0.20;99.90;;;;;;5057923;28;20814;-64
2022/01/16 01:25:16;;;;;;;2.38;1.20;;;0.20;99.90;;;;;;5063280;28;20082;-63
2022/01/16 01:27:44;;;;;;;1.25;0.50;;;0.20;99.90;;;;;;5060066;28;20055;-64
2022/01/16 01:30:15;;;;;;;1.13;0.60;;;0.30;99.90;;;;;;5064657;28;20109;-64
2022/01/16 01:32:43;;;;;;;1.77;0.70;;;0.40;99.90;;;;;;5057144;28;20044;-65
2022/01/16 01:35:12;;;;;;;1.25;0.57;;;0.50;99.90;;;;;;5063193;28;20125;-64
2022/01/16 01:37:39;;;;;;;5.25;0.80;;;0.50;99.90;;;;;;5063102;28;20491;-64
2022/01/16 01:40:08;;;;;;;2.83;0.70;;;0.50;99.90;;;;;;5062757;28;20043;-64
2022/01/16 01:42:43;;;;;;;1.92;0.38;;;0.50;99.90;;;;;;5060698;28;20043;-65
2022/01/16 01:53:23;;;;;;;1.20;0.80;;;0.50;99.90;;;;;;5062542;28;20041;-64
2022/01/16 01:55:49;;;;;;;2.38;0.50;;;0.50;99.90;;;;;;5066798;28;20094;-64
2022/01/16 01:58:15;;;;;;;2.28;0.88;;;0.50;99.90;;;;;;5062606;28;20097;-64
2022/01/16 02:00:42;;;;;;;0.95;0.38;;;0.60;99.90;;;;;;5063407;28;20043;-64
2022/01/16 02:05:37;;;;;;;0.65;0.30;;;0.70;99.90;;;;;;5066016;28;20451;-64
2022/01/16 02:08:05;;;;;;;0.88;0.45;;;0.70;99.90;;;;;;5060438;28;20040;-64
2022/01/16 02:10:30;;;;;;;2.13;0.35;;;0.70;99.90;;;;;;5062585;28;20068;-64
2022/01/16 02:13:01;;;;;;;1.33;0.40;;;0.70;99.90;;;;;;5060204;28;20079;-64
2022/01/16 02:29:47;;;;;;;1.17;0.50;;;0.80;99.90;;;;;;5061016;28;20056;-64
2022/01/16 02:34:33;;;;;;;0.32;0.30;;;0.90;99.90;;;;;;5063301;28;20075;-66
2022/01/16 02:37:03;;;;;;;0.95;0.30;;;1.00;99.90;;;;;;5055500;28;20044;-65
2022/01/16 02:39:34;;;;;;;1.10;0.35;;;1.00;99.90;;;;;;5065660;28;20048;-66
2022/01/16 02:42:01;;;;;;;1.85;0.50;;;1.00;99.90;;;;;;5054092;28;20059;-65
2022/01/16 02:46:54;;;;;;;1.30;0.50;;;0.90;99.90;;;;;;5060198;28;20153;-65
2022/01/16 02:49:22;;;;;;;0.80;0.40;;;0.90;99.90;;;;;;5060360;28;20721;-66
2022/01/16 02:51:50;;;;;;;2.35;0.60;;;0.80;99.90;;;;;;5060750;28;20045;-65
2022/01/16 02:54:16;;;;;;;3.47;0.40;;;0.90;99.90;;;;;;5063132;28;20680;-65
2022/01/16 02:56:43;;;;;;;2.50;0.20;;;0.90;99.90;;;;;;5064534;28;20048;-65
2022/01/16 02:59:12;;;;;;;0.77;0.13;;;1.10;99.90;;;;;;5062345;28;20037;-66
2022/01/16 03:01:39;;;;;;;1.05;0.30;;;1.20;99.90;;;;;;5060790;28;20044;-65
2022/01/16 03:04:05;;;;;;;1.27;0.20;;;1.30;99.90;;;;;;5064075;28;20746;-65
2022/01/16 03:06:31;;;;;;;0.20;0.10;;;1.50;99.90;;;;;;5063486;28;20049;-66
2022/01/16 03:08:56;;;;;;;0.70;0.20;;;1.60;99.90;;;;;;5064446;28;20039;-65
2022/01/16 03:11:35;;;;;;;0.95;0.30;;;1.60;99.90;;;;;;5055158;28;20036;-65
2022/01/16 03:14:02;;;;;;;0.40;0.20;;;1.60;99.90;;;;;;5063710;28;20072;-65
2022/01/16 03:16:28;;;;;;;0.10;0.10;;;1.60;99.90;;;;;;5063055;28;20044;-65
2022/01/16 03:21:57;;;;;;;0.60;0.32;;;1.70;99.90;;;;;;5040075;28;20090;-66
2022/01/16 03:24:29;;;;;;;0.50;0.25;;;1.80;99.90;;;;;;5059668;28;20040;-66
2022/01/16 03:26:58;;;;;;;1.08;0.25;;;1.80;99.90;;;;;;5059650;28;20069;-66
2022/01/16 03:29:25;;;;;;;0.60;0.22;;;1.80;99.90;;;;;;5061697;28;20564;-65
2022/01/16 03:31:52;;;;;;;0.20;0.20;;;1.80;99.90;;;;;;5060196;28;20043;-66
2022/01/16 03:34:18;;;;;;;1.55;0.40;;;1.80;99.90;;;;;;5058837;28;20043;-65
2022/01/16 03:36:44;;;;;;;0.30;0.20;;;1.80;99.90;;;;;;5060679;28;20178;-65
2022/01/16 03:39:10;;;;;;;0.20;0.20;;;1.80;99.90;;;;;;5062480;28;20036;-66
2022/01/16 03:41:37;;;;;;;0.35;0.20;;;1.80;99.90;;;;;;5063094;28;20906;-65
2022/01/16 03:44:04;;;;;;;5.32;0.40;;;1.80;99.90;;;;;;5065600;28;20451;-65
2022/01/16 03:46:34;;;;;;;0.17;0.17;;;1.80;99.90;;;;;;5063558;28;20053;-65
2022/01/16 03:49:08;;;;;;;0.20;0.20;;;1.90;99.90;;;;;;5060676;28;20034;-65
2022/01/16 03:51:36;;;;;;;0.30;0.20;;;1.80;99.90;;;;;;5062785;28;20044;-64
2022/01/16 03:54:03;;;;;;;2.05;0.20;;;1.90;99.90;;;;;;5066440;28;20055;-66
2022/01/16 03:56:28;;;;;;;4.32;0.30;;;2.00;99.90;;;;;;5067322;28;20508;-65
2022/01/16 03:58:54;;;;;;;0.88;0.20;;;1.90;99.90;;;;;;5066528;28;20059;-65
2022/01/16 04:01:20;;;;;;;2.72;0.30;;;1.90;99.90;;;;;;5062564;28;20036;-66
2022/01/16 04:03:46;;;;;;;4.63;0.38;;;1.90;99.90;;;;;;5063714;28;20499;-65
2022/01/16 04:06:11;;;;;;;0.60;0.40;;;1.90;99.90;;;;;;5068243;28;20098;-66
2022/01/16 04:08:37;;;;;;;1.45;0.55;;;1.80;99.90;;;;;;5065313;28;20036;-66
2022/01/16 04:11:03;;;;;;;6.72;2.10;;;1.90;99.90;;;;;;5064977;28;20120;-64
2022/01/16 04:13:31;;;;;;;1.60;0.90;;;1.90;99.90;;;;;;5061134;28;20505;-65
2022/01/16 04:15:57;;;;;;;7.57;1.67;;;2.00;99.90;;;;;;5066317;28;20032;-65
2022/01/16 04:18:22;;;;;;;4.65;1.85;;;2.00;99.90;;;;;;5067519;28;20045;-65
2022/01/16 04:20:48;;;;;;;4.35;1.90;;;2.00;99.90;;;;;;5060778;28;20047;-64
2022/01/16 04:23:14;;;;;;;3.80;2.25;;;2.00;99.90;;;;;;5063709;28;20033;-65
2022/01/16 04:25:39;;;;;;;3.83;2.30;;;2.10;99.90;;;;;;5064333;28;20124;-65
2022/01/16 04:28:05;;;;;;;4.63;2.60;;;2.10;99.90;;;;;;5060028;28;20139;-65
2022/01/16 04:30:31;;;;;;;5.20;2.92;;;2.10;99.90;;;;;;5064454;28;20059;-66
2022/01/16 04:32:57;;;;;;;5.80;3.58;;;2.10;99.90;;;;;;5064731;28;20032;-66
2022/01/16 04:35:23;;;;;;;8.48;2.90;;;2.10;99.90;;;;;;5068618;28;20047;-65
2022/01/16 04:37:49;;;;;;;5.38;3.10;;;2.00;99.90;;;;;;5067367;28;20037;-65
2022/01/16 04:40:15;;;;;;;8.93;3.97;;;2.00;99.90;;;;;;5065195;28;20044;-65
2022/01/16 04:45:27;;;;;;;4.82;3.25;;;1.90;99.90;;;;;;5067737;28;20036;-65
2022/01/16 04:47:53;;;;;;;9.40;4.57;;;1.80;99.90;;;;;;5064916;28;20124;-66
2022/01/16 04:50:21;;;;;;;9.80;4.57;;;1.70;99.90;;;;;;5065120;28;20560;-66
2022/01/16 04:52:48;;;;;;;6.97;4.35;;;1.70;99.90;;;;;;5058822;28;20037;-65
2022/01/16 04:55:16;;;;;;;9.25;4.28;;;1.70;99.90;;;;;;5072130;28;20123;-65
2022/01/16 04:57:42;;;;;;;10.57;5.10;;;1.60;99.90;;;;;;5072721;28;20051;-64
2022/01/16 05:00:13;;;;;;;9.73;4.85;;;1.60;99.90;;;;;;5064452;28;20963;-65
2022/01/16 05:02:40;;;;;;;12.20;5.80;;;1.50;99.90;;;;;;5065405;28;20044;-66
2022/01/16 05:05:06;;;;;;;11.07;5.18;;;1.40;99.90;;;;;;5076665;28;20480;-64
2022/01/16 05:07:36;;;;;;;9.73;5.72;;;1.40;99.90;;;;;;5066344;28;20059;-65
2022/01/16 05:10:02;;;;;;;12.27;5.82;;;1.40;99.90;;;;;;5053893;28;20040;-65
2022/01/16 05:12:33;;;;;;;11.05;5.80;;;1.40;99.90;;;;;;5073323;28;20495;-65
2022/01/16 05:17:45;;;;;;;11.13;5.90;;;1.40;99.90;;;;;;5063102;28;20395;-65
2022/01/16 05:20:11;;;;;;;11.73;6.30;;;1.40;99.90;;;;;;5059616;28;20028;-66
2022/01/16 05:22:37;;;;;;;11.75;5.53;;;1.40;99.90;;;;;;5056560;28;20512;-65
2022/01/16 05:25:06;;;;;;;15.35;6.30;;;1.40;99.90;;;;;;5064065;28;20071;-64
2022/01/16 05:27:32;;;;;;;11.95;5.80;;;1.40;99.90;;;;;;5072663;28;20052;-64
2022/01/16 05:29:58;;;;;;;12.73;6.38;;;1.40;99.90;;;;;;5077751;28;20046;-65
2022/01/16 05:32:23;;;;;;;12.68;6.03;;;1.40;99.90;;;;;;5067016;28;20032;-65
2022/01/16 05:34:49;;;;;;;11.57;6.80;;;1.40;99.90;;;;;;5063256;28;20052;-65
2022/01/16 05:37:14;;;;;;;12.10;6.28;;;1.30;99.90;;;;;;5066673;28;20036;-65
2022/01/16 05:39:40;;;;;;;8.70;5.50;;;1.30;99.90;;;;;;5068102;28;20040;-64
2022/01/16 05:42:07;;;;;;;13.30;6.03;;;1.30;99.90;;;;;;5069951;28;20120;-66
2022/01/16 05:44:33;;;;;;;11.15;5.70;;;1.40;99.90;;;;;;5061246;28;20431;-65
2022/01/16 05:47:02;;;;;;;12.80;6.55;;;1.40;99.90;;;;;;5060926;28;20044;-65
2022/01/16 05:49:28;;;;;;;12.65;6.18;;;1.40;99.90;;;;;;5062336;28;20265;-65
2022/01/16 05:51:54;;;;;;;14.88;6.63;;;1.40;99.90;;;;;;5062567;28;20609;-65
2022/01/16 05:54:20;;;;;;;12.52;6.63;;;1.30;99.90;;;;;;5065360;28;20032;-66
2022/01/16 05:56:45;;;;;;;11.90;6.35;;;1.30;99.90;;;;;;5066168;28;20037;-66
2022/01/16 05:59:11;;;;;;;13.30;6.25;;;1.30;99.90;;;;;;5062082;28;20037;-65
2022/01/16 06:01:36;;;;;;;11.30;6.50;;;1.20;99.90;;;;;;5064998;28;20044;-66
2022/01/16 06:04:02;;;;;;;10.77;6.05;;;1.30;99.90;;;;;;5064577;28;20029;-65
2022/01/16 06:06:28;;;;;;;9.90;5.88;;;1.30;99.90;;;;;;5065714;28;20135;-64
2022/01/16 06:08:54;;;;;;;12.82;7.05;;;1.30;99.90;;;;;;5066429;28;20595;-66
2022/01/16 06:11:19;;;;;;;12.30;6.75;;;1.30;99.90;;;;;;5066813;28;20033;-64
2022/01/16 06:13:45;;;;;;;14.45;7.38;;;1.30;99.90;;;;;;5064325;28;20440;-64
2022/01/16 06:16:11;;;;;;;14.50;7.05;;;1.30;99.90;;;;;;5065078;28;20045;-64
2022/01/16 06:18:36;;;;;;;13.23;6.72;;;1.30;99.90;;;;;;5063316;28;20044;-64
2022/01/16 06:21:02;;;;;;;20.67;8.20;;;1.30;99.90;;;;;;5060558;28;20041;-64
2022/01/16 06:23:28;;;;;;;17.75;7.95;;;1.30;99.90;;;;;;5060018;28;20040;-64
2022/01/16 06:25:56;;;;;;;23.38;9.13;;;1.30;99.90;;;;;;5066187;28;20488;-65
2022/01/16 06:28:24;;;;;;;21.55;10.70;;;1.40;99.90;;;;;;5062129;28;20048;-63
2022/01/16 06:30:50;;;;;;;22.42;9.82;;;1.20;99.90;;;;;;5065174;28;20039;-64
2022/01/16 06:33:15;;;;;;;17.50;8.63;;;1.20;99.90;;;;;;5060583;28;20106;-64
2022/01/16 06:35:41;;;;;;;15.85;8.05;;;1.20;99.90;;;;;;5067171;28;20439;-64
2022/01/16 06:38:07;;;;;;;22.17;9.75;;;1.20;99.90;;;;;;5066617;28;20111;-64
2022/01/16 06:40:33;;;;;;;17.13;8.90;;;1.20;99.90;;;;;;5064229;28;20064;-64
2022/01/16 06:42:59;;;;;;;20.45;9.40;;;1.10;99.90;;;;;;5061890;28;20177;-65
2022/01/16 06:45:25;;;;;;;24.92;9.70;;;1.20;99.90;;;;;;5066313;28;20098;-65
2022/01/16 06:47:51;;;;;;;19.75;9.95;;;1.20;99.90;;;;;;5062251;28;20045;-65
2022/01/16 06:50:18;;;;;;;20.85;10.82;;;1.20;99.90;;;;;;5066625;28;20048;-63
2022/01/16 06:52:44;;;;;;;23.23;10.38;;;1.20;99.90;;;;;;5062524;28;20040;-65
2022/01/16 06:55:10;;;;;;;21.73;9.40;;;1.10;99.90;;;;;;5061034;28;20047;-65
2022/01/16 06:57:36;;;;;;;18.90;9.85;;;1.20;99.90;;;;;;5063470;28;20443;-64
2022/01/16 07:00:05;;;;;;;24.80;11.10;;;1.10;99.90;;;;;;5063963;28;20090;-65
2022/01/16 07:02:31;;;;;;;21.70;10.60;;;1.10;99.90;;;;;;5059059;28;20040;-66
2022/01/16 07:04:56;;;;;;;21.40;10.68;;;1.10;99.90;;;;;;5065643;28;20679;-65
2022/01/16 07:07:22;;;;;;;20.58;9.88;;;1.10;99.90;;;;;;5063592;28;20049;-64
2022/01/16 07:09:47;;;;;;;22.80;10.70;;;1.20;99.90;;;;;;5061124;28;20032;-64
2022/01/16 07:12:14;;;;;;;20.85;10.95;;;1.20;99.90;;;;;;5061939;28;20093;-63
2022/01/16 07:14:40;;;;;;;25.85;11.48;;;1.10;99.90;;;;;;5061321;28;20043;-64
2022/01/16 07:17:06;;;;;;;25.10;11.20;;;1.00;99.90;;;;;;5060902;28;20456;-63
2022/01/16 07:19:31;;;;;;;21.90;11.20;;;1.10;99.90;;;;;;5063095;28;20467;-64
2022/01/16 07:21:57;;;;;;;22.63;10.32;;;1.00;99.90;;;;;;5061666;28;20112;-64
2022/01/16 07:24:23;;;;;;;20.55;11.10;;;1.00;99.90;;;;;;5061320;28;20404;-64
2022/01/16 07:26:48;;;;;;;18.90;10.55;;;1.00;99.90;;;;;;5062267;28;20404;-65
2022/01/16 07:29:14;;;;;;;19.73;9.48;;;1.00;99.90;;;;;;5065801;28;20136;-64
2022/01/16 07:31:40;;;;;;;21.95;10.40;;;1.00;99.90;;;;;;5061835;28;20135;-63
2022/01/16 07:34:06;;;;;;;16.48;8.85;;;0.90;99.90;;;;;;5067526;28;20032;-65
2022/01/16 07:36:32;;;;;;;16.63;8.95;;;1.00;99.90;;;;;;5051842;28;20120;-65
2022/01/16 07:38:58;;;;;;;16.48;8.55;;;0.90;99.90;;;;;;5071571;28;20151;-64
2022/01/16 07:41:25;;;;;;;18.55;9.75;;;1.00;99.90;;;;;;5068886;28;20716;-64
2022/01/16 07:43:50;;;;;;;21.48;9.18;;;1.00;99.90;;;;;;5066088;28;20036;-65
2022/01/16 07:46:19;;;;;;;18.95;9.10;;;0.90;99.90;;;;;;5069011;28;20063;-65
2022/01/16 07:48:45;;;;;;;18.20;8.75;;;0.90;99.90;;;;;;5065154;28;20068;-65
2022/01/16 07:51:10;;;;;;;23.55;10.10;;;0.90;99.90;;;;;;5065256;28;20546;-65
2022/01/16 07:53:37;;;;;;;23.73;10.25;;;0.80;99.90;;;;;;5061972;28;20036;-65
2022/01/16 07:56:03;;;;;;;18.25;8.82;;;0.80;99.90;;;;;;5068727;28;20082;-64
2022/01/16 07:58:29;;;;;;;22.05;9.20;;;0.80;99.90;;;;;;5064022;28;20044;-64
2022/01/16 08:00:56;;;;;;;22.45;10.55;;;0.80;99.90;;;;;;5064513;28;20040;-64
2022/01/16 08:03:22;;;;;;;21.70;10.23;;;0.90;99.90;;;;;;5064592;28;20090;-65
2022/01/16 08:05:48;;;;;;;21.40;9.52;;;0.90;99.90;;;;;;5067315;28;20416;-64
2022/01/16 08:08:13;;;;;;;33.35;11.75;;;1.00;99.90;;;;;;5064542;28;20043;-65
2022/01/16 08:10:40;;;;;;;24.98;11.98;;;1.10;99.90;;;;;;5064245;28;20064;-64
2022/01/16 08:13:05;;;;;;;30.05;12.05;;;1.00;99.90;;;;;;5061837;28;20639;-64
2022/01/16 08:15:31;;;;;;;27.27;12.15;;;1.00;99.90;;;;;;5063335;28;20108;-64
2022/01/16 08:17:56;;;;;;;37.45;13.98;;;1.00;99.90;;;;;;5062393;28;20047;-65
2022/01/16 08:20:22;;;;;;;32.50;13.75;;;1.00;99.90;;;;;;5067636;28;20041;-65
2022/01/16 08:22:48;;;;;;;36.42;14.45;;;1.00;99.90;;;;;;5064605;28;20033;-64
2022/01/16 08:25:14;;;;;;;33.30;13.15;;;1.00;99.90;;;;;;5062489;28;20040;-65
2022/01/16 08:27:40;;;;;;;33.25;12.95;;;0.90;99.90;;;;;;5063616;28;20041;-64
2022/01/16 08:30:07;;;;;;;33.03;14.50;;;0.90;99.90;;;;;;5067893;28;20107;-64
2022/01/16 08:32:33;;;;;;;34.95;14.52;;;1.00;99.90;;;;;;5064595;28;20045;-64
2022/01/16 08:34:59;;;;;;;35.55;14.77;;;0.90;99.90;;;;;;5068657;28;20047;-64
2022/01/16 08:37:25;;;;;;;29.42;12.75;;;0.90;99.90;;;;;;5067679;28;20044;-64
2022/01/16 08:39:51;;;;;;;41.95;14.43;;;0.90;99.90;;;;;;5067379;28;20044;-65
2022/01/16 08:42:16;;;;;;;37.15;14.52;;;1.00;99.90;;;;;;5063824;28;20424;-64
2022/01/16 08:44:42;;;;;;;32.05;13.07;;;1.00;99.90;;;;;;5070175;28;20400;-64
2022/01/16 08:47:09;;;;;;;33.42;13.82;;;1.10;99.90;;;;;;5066869;28;20037;-65
2022/01/16 08:49:35;;;;;;;40.63;15.45;;;1.10;99.90;;;;;;5063928;28;20036;-63
2022/01/16 08:52:02;;;;;;;29.17;12.95;;;1.10;99.90;;;;;;5063436;28;20056;-64
2022/01/16 08:54:28;;;;;;;34.90;14.50;;;1.20;99.90;;;;;;5062571;28;20041;-64
2022/01/16 08:56:54;;;;;;;40.10;14.82;;;1.20;99.90;;;;;;5063285;28;20538;-64
2022/01/16 08:59:19;;;;;;;30.55;12.93;;;1.20;99.90;;;;;;5061436;28;20071;-65
2022/01/16 09:01:46;;;;;;;30.92;13.60;;;1.20;99.90;;;;;;5063591;28;20040;-65
2022/01/16 09:04:11;;;;;;;25.92;13.07;;;1.30;99.90;;;;;;5060166;28;20048;-64
2022/01/16 09:06:37;;;;;;;27.42;11.88;;;1.30;99.90;;;;;;5064071;28;20044;-64
2022/01/16 09:09:03;;;;;;;33.70;14.02;;;1.30;99.90;;;;;;5062193;28;20509;-64
2022/01/16 09:11:28;;;;;;;34.20;14.00;;;1.30;99.90;;;;;;5063801;28;20162;-65
2022/01/16 09:13:54;;;;;;;29.95;13.15;;;1.30;99.90;;;;;;5061243;28;20033;-64
2022/01/16 09:16:20;;;;;;;33.15;13.63;;;1.30;99.90;;;;;;5064104;28;20052;-64
2022/01/16 09:18:48;;;;;;;30.98;12.65;;;1.30;99.90;;;;;;5053823;28;20127;-64
2022/01/16 09:21:16;;;;;;;26.63;12.13;;;1.40;99.90;;;;;;5053406;28;20081;-64
2022/01/16 09:23:46;;;;;;;27.77;12.10;;;1.40;99.90;;;;;;5060509;28;20047;-65
2022/01/16 09:26:13;;;;;;;26.92;11.80;;;1.40;99.90;;;;;;5064243;28;20071;-64
2022/01/16 09:28:39;;;;;;;30.55;11.73;;;1.40;99.90;;;;;;5067288;28;20121;-66
2022/01/16 09:31:05;;;;;;;27.00;11.88;;;1.40;99.90;;;;;;5063124;28;20035;-64
2022/01/16 09:33:31;;;;;;;23.63;11.13;;;1.50;99.90;;;;;;5059190;28;20048;-64
2022/01/16 09:35:56;;;;;;;24.35;10.85;;;1.50;99.90;;;;;;5063163;28;20063;-64
2022/01/16 09:38:22;;;;;;;26.80;11.70;;;1.40;99.90;;;;;;5064962;28;20078;-64
2022/01/16 09:40:49;;;;;;;23.00;11.25;;;1.40;99.90;;;;;;5061847;28;20072;-64
2022/01/16 09:43:16;;;;;;;21.30;10.85;;;1.50;99.90;;;;;;5062840;28;20032;-65
2022/01/16 09:45:42;;;;;;;29.15;11.93;;;1.50;99.90;;;;;;5067527;28;20032;-65
2022/01/16 09:48:08;;;;;;;24.23;11.65;;;1.50;99.90;;;;;;5062978;28;20071;-65
2022/01/16 09:50:35;;;;;;;27.60;12.20;;;1.50;99.90;;;;;;5068696;28;20114;-65
2022/01/16 09:53:01;;;;;;;24.63;11.25;;;1.40;99.90;;;;;;5059840;28;20067;-65
2022/01/16 09:55:27;;;;;;;24.15;10.80;;;1.50;99.90;;;;;;5066125;28;20040;-64
2022/01/16 09:57:57;;;;;;;26.85;12.05;;;1.50;99.90;;;;;;5062797;28;20088;-65
2022/01/16 10:00:27;;;;;;;23.45;10.40;;;1.50;99.90;;;;;;5064295;28;20036;-64
2022/01/16 10:02:53;;;;;;;24.60;10.73;;;1.60;99.90;;;;;;5061844;28;20123;-65
2022/01/16 10:05:37;;;;;;;21.27;10.63;;;1.60;99.90;;;;;;5067320;28;20048;-65
2022/01/16 10:08:08;;;;;;;22.00;11.50;;;1.60;99.90;;;;;;5057488;28;20064;-65
2022/01/16 10:10:42;;;;;;;23.05;10.68;;;1.60;99.90;;;;;;5064861;28;20101;-65
2022/01/16 10:13:33;;;;;;;25.63;11.38;;;1.60;99.90;;;;;;5061226;28;20087;-66
2022/01/16 10:15:58;;;;;;;25.40;12.55;;;1.60;99.90;;;;;;5063320;28;20048;-64
2022/01/16 10:19:17;;;;;;;27.13;12.52;;;1.60;99.90;;;;;;5064852;28;20036;-65
2022/01/16 10:21:43;;;;;;;30.27;13.13;;;1.60;99.90;;;;;;5050834;28;20128;-64
2022/01/16 10:24:20;;;;;;;25.92;11.75;;;1.60;99.90;;;;;;5051860;28;20043;-66
2022/01/16 10:26:47;;;;;;;30.52;11.75;;;1.70;99.90;;;;;;5056083;28;20049;-65
2022/01/16 10:29:18;;;;;;;24.77;11.23;;;1.70;99.90;;;;;;5062865;28;20044;-66
2022/01/16 10:31:44;;;;;;;19.17;10.07;;;1.70;99.90;;;;;;5057351;28;20064;-66
2022/01/16 10:37:30;;;;;;;;;;;1.70;99.90;;;;;;5021158;28;20045;-65
2022/01/16 10:40:16;;;;;;;23.50;10.25;;;1.80;99.90;;;;;;5064913;28;19916;-66
2022/01/16 10:42:48;;;;;;;26.45;11.93;;;1.80;99.90;;;;;;5059107;28;20066;-65
2022/01/16 10:45:14;;;;;;;31.23;12.80;;;1.80;99.90;;;;;;5059369;28;20044;-66
2022/01/16 10:50:51;;;;;;;25.92;12.63;;;1.80;99.90;;;;;;5060040;28;20037;-64
2022/01/16 10:56:39;;;;;;;26.80;12.70;;;1.90;99.90;;;;;;5058253;28;20045;-65
2022/01/16 10:59:21;;;;;;;23.33;11.07;;;1.90;99.90;;;;;;5064574;28;20043;-65
2022/01/16 11:02:05;;;;;;;28.52;13.60;;;1.90;99.90;;;;;;5057745;28;20131;-65
2022/01/16 11:04:31;;;;;;;33.33;14.30;;;1.90;99.90;;;;;;5056690;28;20131;-65
2022/01/16 11:07:03;;;;;;;33.13;15.13;;;1.90;99.90;;;;;;5058328;28;20123;-66
2022/01/16 11:09:31;;;;;;;30.77;14.88;;;2.00;99.90;;;;;;5062161;28;20047;-65
2022/01/16 11:12:00;;;;;;;26.50;14.27;;;2.00;99.90;;;;;;5058178;28;20040;-65
2022/01/16 11:14:27;;;;;;;25.75;12.75;;;2.10;99.90;;;;;;5063749;28;20049;-65
2022/01/16 11:16:57;;;;;;;27.00;11.90;;;2.00;99.90;;;;;;5058475;28;20110;-65
2022/01/16 11:19:24;;;;;;;27.90;11.55;;;2.10;99.90;;;;;;5065785;28;20527;-64
2022/01/16 11:21:54;;;;;;;22.90;10.68;;;2.10;99.90;;;;;;5058536;28;20064;-65
2022/01/16 11:26:51;;;;;;;22.75;11.10;;;2.20;99.90;;;;;;5060908;28;20079;-64
2022/01/16 11:29:16;;;;;;;25.23;12.25;;;2.20;99.90;;;;;;5065851;28;20041;-65
2022/01/16 11:31:43;;;;;;;25.55;12.25;;;2.20;99.90;;;;;;5061903;28;20040;-65
2022/01/16 11:34:10;;;;;;;29.63;14.98;;;2.20;99.90;;;;;;5059444;28;20578;-65
2022/01/16 11:36:36;;;;;;;28.10;12.90;;;2.30;99.90;;;;;;5061389;28;20119;-65
2022/01/16 11:39:05;;;;;;;28.25;14.63;;;2.30;99.90;;;;;;5067481;28;20123;-65
2022/01/16 11:41:39;;;;;;;32.20;14.95;;;2.30;99.90;;;;;;5056286;28;20095;-65
2022/01/16 11:44:21;;;;;;;29.92;13.35;;;2.40;99.90;;;;;;5062887;28;20045;-65
2022/01/16 11:46:52;;;;;;;28.85;14.15;;;2.40;99.90;;;;;;5057525;28;20145;-66
2022/01/16 11:49:35;;;;;;;33.47;15.38;;;2.50;99.90;;;;;;5061174;28;20033;-66
2022/01/16 11:52:11;;;;;;;31.55;15.20;;;2.50;99.90;;;;;;5057579;28;20040;-65
2022/01/16 11:54:42;;;;;;;30.55;14.68;;;2.60;99.90;;;;;;5064002;28;20079;-65
2022/01/16 11:57:17;;;;;;;29.35;15.27;;;2.60;99.90;;;;;;5048728;28;20068;-65
2022/01/16 11:59:43;;;;;;;31.98;15.63;;;2.60;99.90;;;;;;5063391;28;20817;-66
2022/01/16 12:02:08;;;;;;;29.20;14.10;;;2.60;99.90;;;;;;5056200;28;20033;-66
2022/01/16 12:04:34;;;;;;;30.75;14.80;;;2.70;99.90;;;;;;5063914;28;20036;-65
2022/01/16 12:07:31;;;;;;;30.48;14.70;;;2.70;99.90;;;;;;5064604;28;20123;-66
2022/01/16 12:09:59;;;;;;;;;;;2.80;99.90;;;;;;5063375;28;20070;-66
2022/01/16 12:12:28;;;;;;;32.92;15.55;;;2.80;99.90;;;;;;5057373;28;20125;-66
2022/01/16 12:14:55;;;;;;;31.90;16.17;;;2.90;99.90;;;;;;5065174;28;20046;-65
2022/01/16 12:17:45;;;;;;;30.85;16.08;;;3.00;99.90;;;;;;5060282;28;20121;-65
2022/01/16 12:20:13;;;;;;;31.58;16.00;;;2.90;99.90;;;;;;5068019;28;20723;-66
2022/01/16 12:22:43;;;;;;;36.60;17.17;;;2.90;99.90;;;;;;5059520;28;20033;-67
2022/01/16 12:25:28;;;;;;;35.45;15.85;;;2.90;99.90;;;;;;5062871;28;20040;-65
2022/01/16 12:28:08;;;;;;;31.27;15.75;;;2.90;99.90;;;;;;5062996;28;20063;-65
2022/01/16 12:30:58;;;;;;;33.85;16.23;;;2.90;99.90;;;;;;5065403;28;20055;-65
2022/01/16 12:33:41;;;;;;;34.30;17.17;;;2.90;99.90;;;;;;5055627;28;20041;-65
2022/01/16 12:36:12;;;;;;;36.38;17.23;;;3.00;99.90;;;;;;5055923;28;20052;-66
2022/01/16 12:38:39;;;;;;;35.17;18.35;;;3.00;99.90;;;;;;5064274;28;20048;-66
2022/01/16 12:41:27;;;;;;;39.22;19.42;;;3.00;99.90;;;;;;5064678;28;20058;-65
2022/01/16 12:43:59;;;;;;;37.72;18.85;;;2.90;99.90;;;;;;5063842;28;20070;-65
2022/01/16 12:46:35;;;;;;;35.88;17.65;;;2.80;99.90;;;;;;5063844;28;20080;-65
2022/01/16 12:49:05;;;;;;;34.40;18.40;;;2.80;99.90;;;;;;5065535;28;20040;-65
2022/01/16 12:51:34;;;;;;;39.45;18.30;;;2.90;99.90;;;;;;5061814;28;20044;-66
2022/01/16 12:54:03;;;;;;;38.17;16.88;;;2.90;99.90;;;;;;5063049;28;20068;-65
2022/01/16 12:56:49;;;;;;;31.25;16.92;;;2.90;99.90;;;;;;5062668;28;20131;-65
2022/01/16 12:59:20;;;;;;;33.95;16.95;;;3.00;99.90;;;;;;5056110;28;21013;-66
2022/01/16 13:01:51;;;;;;;31.80;16.35;;;2.90;99.90;;;;;;5058163;28;20033;-67
2022/01/16 13:04:23;;;;;;;48.50;18.48;;;3.10;99.90;;;;;;5058317;28;20037;-65
2022/01/16 13:06:49;;;;;;;37.40;17.23;;;3.10;99.90;;;;;;5059909;28;20667;-65
2022/01/16 13:09:14;;;;;;;39.72;18.55;;;3.20;99.90;;;;;;5062538;28;20045;-66
2022/01/16 13:11:50;;;;;;;35.67;17.88;;;3.20;99.90;;;;;;5061292;28;20041;-65
2022/01/16 13:14:19;;;;;;;24.73;12.55;;;3.20;99.90;;;;;;5061395;28;20040;-65
2022/01/16 13:16:48;;;;;;;31.80;16.00;;;3.20;99.90;;;;;;5062436;28;20107;-66
2022/01/16 13:19:16;;;;;;;33.97;16.35;;;3.20;99.90;;;;;;5063396;28;20123;-66
2022/01/16 13:21:56;;;;;;;37.38;18.70;;;3.20;99.90;;;;;;5059672;28;20053;-67
2022/01/16 13:24:49;;;;;;;40.70;18.70;;;3.20;99.90;;;;;;5058646;28;20075;-66
2022/01/16 13:27:19;;;;;;;37.42;17.35;;;3.10;99.90;;;;;;5052238;28;20059;-65
2022/01/16 13:30:24;;;;;;;37.47;17.15;;;3.10;99.90;;;;;;5062111;28;20036;-65
2022/01/16 13:32:50;;;;;;;34.92;16.73;;;3.10;99.90;;;;;;5060060;28;20066;-65
2022/01/16 13:35:21;;;;;;;35.45;16.95;;;3.10;99.90;;;;;;5067966;28;20033;-65
2022/01/16 13:37:49;;;;;;;28.77;15.52;;;3.10;99.90;;;;;;5064537;28;20044;-65
2022/01/16 13:40:18;;;;;;;33.33;16.02;;;3.10;99.90;;;;;;5056857;28;20327;-66
2022/01/16 13:43:02;;;;;;;38.47;17.58;;;3.10;99.90;;;;;;5061917;28;20040;-65